sensor_id;sensor_type;location;lat;lon;timestamp;pressure;altitude;pressure_sealevel;temperature;humidity
16821;BME280;8527;49.740;6.604;2022-08-24T00:00:40;99815.41;;;20.79;68.84
16821;BME280;8527;49.740;6.604;2022-08-24T00:05:41;99822.69;;;20.91;69.87
16821;BME280;8527;49.740;6.604;2022-08-24T00:10:41;99825.59;;;20.77;69.21
16821;BME280;8527;49.740;6.604;2022-08-24T00:15:53;99822.22;;;20.70;70.68
16821;BME280;8527;49.740;6.604;2022-08-24T00:20:56;99825.28;;;20.74;70.33
16821;BME280;8527;49.740;6.604;2022-08-24T00:25:56;99819.63;;;20.63;70.74
16821;BME280;8527;49.740;6.604;2022-08-24T00:30:57;99819.63;;;20.63;70.14
16821;BME280;8527;49.740;6.604;2022-08-24T00:35:59;99812.81;;;20.61;71.85
16821;BME280;8527;49.740;6.604;2022-08-24T00:40:57;99814.34;;;20.57;70.00
16821;BME280;8527;49.740;6.604;2022-08-24T00:46:11;99812.56;;;20.38;69.98
16821;BME280;8527;49.740;6.604;2022-08-24T00:51:19;99816.63;;;20.17;71.27
16821;BME280;8527;49.740;6.604;2022-08-24T00:56:36;99822.84;;;20.18;70.68
16821;BME280;8527;49.740;6.604;2022-08-24T01:01:36;99823.16;;;20.09;72.11
16821;BME280;8527;49.740;6.604;2022-08-24T01:06:41;99811.69;;;20.14;69.95
16821;BME280;8527;49.740;6.604;2022-08-24T01:11:45;99809.88;;;19.96;72.86
16821;BME280;8527;49.740;6.604;2022-08-24T01:16:54;99812.56;;;19.96;71.88
16821;BME280;8527;49.740;6.604;2022-08-24T01:22:19;99804.16;;;19.92;73.64
16821;BME280;8527;49.740;6.604;2022-08-24T01:27:28;99817.41;;;19.75;72.95
16821;BME280;8527;49.740;6.604;2022-08-24T01:32:27;99822.69;;;19.82;73.47
16821;BME280;8527;49.740;6.604;2022-08-24T01:37:25;99822.91;;;19.80;74.41
16821;BME280;8527;49.740;6.604;2022-08-24T01:42:26;99820.09;;;19.75;72.82
16821;BME280;8527;49.740;6.604;2022-08-24T01:47:25;99818.53;;;19.67;72.40
16821;BME280;8527;49.740;6.604;2022-08-24T01:52:28;99823.94;;;19.49;74.09
16821;BME280;8527;49.740;6.604;2022-08-24T01:57:33;99830.06;;;19.56;74.90
16821;BME280;8527;49.740;6.604;2022-08-24T02:02:34;99824.09;;;19.54;73.22
16821;BME280;8527;49.740;6.604;2022-08-24T02:07:33;99825.81;;;19.48;73.29
16821;BME280;8527;49.740;6.604;2022-08-24T02:12:35;99833.59;;;19.38;76.28
16821;BME280;8527;49.740;6.604;2022-08-24T02:17:35;99834.41;;;19.38;73.03
16821;BME280;8527;49.740;6.604;2022-08-24T02:22:38;99837.09;;;19.20;75.63
16821;BME280;8527;49.740;6.604;2022-08-24T02:28:02;99833.59;;;19.19;77.47
16821;BME280;8527;49.740;6.604;2022-08-24T02:33:03;99840.84;;;19.37;76.21
16821;BME280;8527;49.740;6.604;2022-08-24T02:38:01;99841.75;;;19.31;76.88
16821;BME280;8527;49.740;6.604;2022-08-24T02:43:03;99850.03;;;19.30;75.57
16821;BME280;8527;49.740;6.604;2022-08-24T02:48:05;99846.59;;;19.22;75.71
16821;BME280;8527;49.740;6.604;2022-08-24T02:53:03;99848.16;;;19.11;77.52
16821;BME280;8527;49.740;6.604;2022-08-24T02:58:10;99851.50;;;19.07;76.37
16821;BME280;8527;49.740;6.604;2022-08-24T03:03:09;99853.69;;;19.17;76.33
16821;BME280;8527;49.740;6.604;2022-08-24T03:08:18;99853.91;;;19.15;76.64
16821;BME280;8527;49.740;6.604;2022-08-24T03:13:19;99857.16;;;18.98;77.90
16821;BME280;8527;49.740;6.604;2022-08-24T03:18:18;99854.47;;;18.98;78.22
16821;BME280;8527;49.740;6.604;2022-08-24T03:23:17;99851.19;;;18.96;77.95
16821;BME280;8527;49.740;6.604;2022-08-24T03:28:16;99857.56;;;18.95;76.93
16821;BME280;8527;49.740;6.604;2022-08-24T03:33:23;99853.16;;;18.82;75.80
16821;BME280;8527;49.740;6.604;2022-08-24T03:38:22;99854.59;;;18.85;77.42
16821;BME280;8527;49.740;6.604;2022-08-24T03:43:20;99849.44;;;18.83;76.01
16821;BME280;8527;49.740;6.604;2022-08-24T03:48:34;99840.66;;;18.69;78.46
16821;BME280;8527;49.740;6.604;2022-08-24T03:53:38;99838.78;;;18.70;78.41
16821;BME280;8527;49.740;6.604;2022-08-24T03:58:39;99844.03;;;18.65;78.74
16821;BME280;8527;49.740;6.604;2022-08-24T04:03:43;99834.72;;;18.61;79.73
16821;BME280;8527;49.740;6.604;2022-08-24T04:08:43;99841.06;;;18.48;77.31
16821;BME280;8527;49.740;6.604;2022-08-24T04:13:45;99834.91;;;18.40;77.72
16821;BME280;8527;49.740;6.604;2022-08-24T04:18:55;99830.88;;;18.24;79.91
16821;BME280;8527;49.740;6.604;2022-08-24T04:23:54;99832.47;;;18.32;78.03
16821;BME280;8527;49.740;6.604;2022-08-24T04:28:56;99846.72;;;18.33;80.30
16821;BME280;8527;49.740;6.604;2022-08-24T04:33:58;99849.91;;;18.23;79.82
16821;BME280;8527;49.740;6.604;2022-08-24T04:38:57;99848.25;;;18.22;78.26
16821;BME280;8527;49.740;6.604;2022-08-24T04:43:58;99844.56;;;18.16;80.21
16821;BME280;8527;49.740;6.604;2022-08-24T04:49:00;99852.19;;;18.19;80.09
16821;BME280;8527;49.740;6.604;2022-08-24T04:53:59;99847.88;;;18.18;80.01
16821;BME280;8527;49.740;6.604;2022-08-24T04:59:01;99849.09;;;18.16;79.36
16821;BME280;8527;49.740;6.604;2022-08-24T05:04:03;99860.72;;;18.09;81.30
16821;BME280;8527;49.740;6.604;2022-08-24T05:09:04;99860.69;;;18.16;79.17
16821;BME280;8527;49.740;6.604;2022-08-24T05:14:02;99872.84;;;18.19;80.37
16821;BME280;8527;49.740;6.604;2022-08-24T05:19:04;99873.72;;;18.12;80.77
16821;BME280;8527;49.740;6.604;2022-08-24T05:24:12;99867.44;;;18.25;80.20
16821;BME280;8527;49.740;6.604;2022-08-24T05:29:11;99869.91;;;18.27;80.15
16821;BME280;8527;49.740;6.604;2022-08-24T05:34:14;99876.34;;;18.19;80.28
16821;BME280;8527;49.740;6.604;2022-08-24T05:39:16;99879.03;;;18.19;80.19
16821;BME280;8527;49.740;6.604;2022-08-24T05:44:17;99869.06;;;18.26;79.99
16821;BME280;8527;49.740;6.604;2022-08-24T05:49:19;99883.72;;;18.31;80.20
16821;BME280;8527;49.740;6.604;2022-08-24T05:54:17;99886.22;;;18.25;81.10
16821;BME280;8527;49.740;6.604;2022-08-24T05:59:17;99886.19;;;18.32;82.08
16821;BME280;8527;49.740;6.604;2022-08-24T06:04:19;99888.88;;;18.32;81.46
16821;BME280;8527;49.740;6.604;2022-08-24T06:09:20;99887.47;;;18.30;81.13
16821;BME280;8527;49.740;6.604;2022-08-24T06:14:19;99884.88;;;18.41;81.73
16821;BME280;8527;49.740;6.604;2022-08-24T06:20:06;99891.44;;;18.52;80.40
16821;BME280;8527;49.740;6.604;2022-08-24T06:24:39;99893.69;;;18.55;81.76
16821;BME280;8527;49.740;6.604;2022-08-24T06:29:58;99900.09;;;18.80;79.98
16821;BME280;8527;49.740;6.604;2022-08-24T06:35:01;99891.56;;;18.90;78.42
16821;BME280;8527;49.740;6.604;2022-08-24T06:39:59;99894.59;;;19.00;79.58
16821;BME280;8527;49.740;6.604;2022-08-24T06:44:58;99900.53;;;19.09;79.17
16821;BME280;8527;49.740;6.604;2022-08-24T06:50:03;99896.56;;;19.11;78.86
16821;BME280;8527;49.740;6.604;2022-08-24T06:55:03;99908.47;;;19.22;78.53
16821;BME280;8527;49.740;6.604;2022-08-24T07:00:05;99901.44;;;19.21;78.18
16821;BME280;8527;49.740;6.604;2022-08-24T07:05:08;99911.44;;;19.14;77.29
16821;BME280;8527;49.740;6.604;2022-08-24T07:10:08;99908.69;;;19.39;76.66
16821;BME280;8527;49.740;6.604;2022-08-24T07:15:07;99915.34;;;19.56;75.61
16821;BME280;8527;49.740;6.604;2022-08-24T07:20:09;99917.38;;;19.79;74.88
16821;BME280;8527;49.740;6.604;2022-08-24T07:25:10;99919.34;;;20.21;73.63
16821;BME280;8527;49.740;6.604;2022-08-24T07:30:12;99919.63;;;20.31;73.10
16821;BME280;8527;49.740;6.604;2022-08-24T07:35:13;99911.28;;;20.75;71.30
16821;BME280;8527;49.740;6.604;2022-08-24T07:40:12;99914.28;;;21.33;68.31
16821;BME280;8527;49.740;6.604;2022-08-24T07:45:11;99915.03;;;21.82;67.32
16821;BME280;8527;49.740;6.604;2022-08-24T07:55:14;99918.19;;;23.17;62.17
16821;BME280;8527;49.740;6.604;2022-08-24T08:00:22;99922.47;;;23.13;62.04
16821;BME280;8527;49.740;6.604;2022-08-24T08:05:23;99927.78;;;24.64;59.10
16821;BME280;8527;49.740;6.604;2022-08-24T08:10:30;99930.88;;;25.05;58.00
16821;BME280;8527;49.740;6.604;2022-08-24T08:15:33;99932.13;;;25.94;55.87
16821;BME280;8527;49.740;6.604;2022-08-24T08:20:32;99939.25;;;26.00;54.41
16821;BME280;8527;49.740;6.604;2022-08-24T08:25:33;99935.28;;;26.54;52.53
16821;BME280;8527;49.740;6.604;2022-08-24T08:30:32;99938.56;;;26.62;53.70
16821;BME280;8527;49.740;6.604;2022-08-24T08:35:34;99935.81;;;27.24;51.41
16821;BME280;8527;49.740;6.604;2022-08-24T08:40:46;99932.22;;;27.34;51.45
16821;BME280;8527;49.740;6.604;2022-08-24T08:46:12;99935.81;;;27.14;50.02
16821;BME280;8527;49.740;6.604;2022-08-24T08:51:46;99930.91;;;27.26;50.96
16821;BME280;8527;49.740;6.604;2022-08-24T08:57:06;99928.47;;;27.14;50.26
16821;BME280;8527;49.740;6.604;2022-08-24T09:02:15;99925.66;;;27.45;49.72
16821;BME280;8527;49.740;6.604;2022-08-24T09:07:37;99918.84;;;28.19;46.94
16821;BME280;8527;49.740;6.604;2022-08-24T09:13:03;99911.81;;;29.36;46.02
16821;BME280;8527;49.740;6.604;2022-08-24T09:18:16;99907.63;;;29.19;45.15
16821;BME280;8527;49.740;6.604;2022-08-24T09:23:26;99914.16;;;28.59;46.53
16821;BME280;8527;49.740;6.604;2022-08-24T09:28:44;99908.75;;;28.89;45.64
16821;BME280;8527;49.740;6.604;2022-08-24T09:33:55;99922.69;;;29.41;44.25
16821;BME280;8527;49.740;6.604;2022-08-24T09:39:20;99908.97;;;29.71;44.65
16821;BME280;8527;49.740;6.604;2022-08-24T09:44:53;99903.84;;;29.40;43.36
16821;BME280;8527;49.740;6.604;2022-08-24T09:50:15;99902.00;;;30.74;41.75
16821;BME280;8527;49.740;6.604;2022-08-24T09:55:43;99895.94;;;30.58;42.10
16821;BME280;8527;49.740;6.604;2022-08-24T10:01:02;99897.00;;;31.24;40.80
16821;BME280;8527;49.740;6.604;2022-08-24T10:06:21;99894.09;;;31.85;38.15
16821;BME280;8527;49.740;6.604;2022-08-24T10:11:33;99886.06;;;32.48;37.65
16821;BME280;8527;49.740;6.604;2022-08-24T10:16:43;99876.19;;;32.70;38.05
16821;BME280;8527;49.740;6.604;2022-08-24T10:21:52;99878.28;;;32.96;36.38
16821;BME280;8527;49.740;6.604;2022-08-24T10:27:14;99871.06;;;32.86;33.33
16821;BME280;8527;49.740;6.604;2022-08-24T10:32:37;99871.13;;;33.44;32.65
16821;BME280;8527;49.740;6.604;2022-08-24T10:38:04;99860.84;;;33.76;30.45
16821;BME280;8527;49.740;6.604;2022-08-24T10:54:33;99854.03;;;32.44;31.17
16821;BME280;8527;49.740;6.604;2022-08-24T10:59:35;99850.13;;;33.48;32.04
16821;BME280;8527;49.740;6.604;2022-08-24T11:04:37;99847.69;;;34.44;30.99
16821;BME280;8527;49.740;6.604;2022-08-24T11:09:49;99838.75;;;34.47;29.54
16821;BME280;8527;49.740;6.604;2022-08-24T11:14:51;99840.19;;;34.71;29.46
16821;BME280;8527;49.740;6.604;2022-08-24T11:19:53;99845.00;;;34.26;28.48
16821;BME280;8527;49.740;6.604;2022-08-24T11:24:58;99834.09;;;34.39;31.26
16821;BME280;8527;49.740;6.604;2022-08-24T11:30:05;99825.06;;;34.12;29.56
16821;BME280;8527;49.740;6.604;2022-08-24T11:35:15;99826.72;;;34.78;30.46
16821;BME280;8527;49.740;6.604;2022-08-24T11:40:18;99819.06;;;34.09;30.41
16821;BME280;8527;49.740;6.604;2022-08-24T11:45:25;99812.28;;;33.80;29.93
16821;BME280;8527;49.740;6.604;2022-08-24T11:50:32;99812.44;;;33.49;29.48
16821;BME280;8527;49.740;6.604;2022-08-24T11:55:40;99813.50;;;33.21;30.10
16821;BME280;8527;49.740;6.604;2022-08-24T12:00:46;99813.47;;;33.13;29.45
16821;BME280;8527;49.740;6.604;2022-08-24T12:05:53;99806.56;;;32.75;29.74
16821;BME280;8527;49.740;6.604;2022-08-24T12:11:02;99820.72;;;33.00;29.17
16821;BME280;8527;49.740;6.604;2022-08-24T12:16:09;99808.63;;;33.09;29.72
16821;BME280;8527;49.740;6.604;2022-08-24T12:21:08;99798.47;;;33.36;29.46
16821;BME280;8527;49.740;6.604;2022-08-24T12:26:19;99805.19;;;33.71;29.49
16821;BME280;8527;49.740;6.604;2022-08-24T12:31:35;99798.56;;;32.33;30.00
16821;BME280;8527;49.740;6.604;2022-08-24T12:36:52;99785.91;;;33.53;30.30
16821;BME280;8527;49.740;6.604;2022-08-24T12:42:04;99786.38;;;33.99;29.41
16821;BME280;8527;49.740;6.604;2022-08-24T12:47:03;99779.97;;;34.43;28.95
16821;BME280;8527;49.740;6.604;2022-08-24T12:52:19;99783.69;;;34.38;28.58
16821;BME280;8527;49.740;6.604;2022-08-24T12:57:36;99776.22;;;34.56;28.00
16821;BME280;8527;49.740;6.604;2022-08-24T13:02:40;99777.38;;;34.85;28.41
16821;BME280;8527;49.740;6.604;2022-08-24T13:07:42;99768.41;;;34.02;28.91
16821;BME280;8527;49.740;6.604;2022-08-24T13:29:28;99764.84;;;33.48;28.35
16821;BME280;8527;49.740;6.604;2022-08-24T13:34:39;99754.31;;;33.33;29.36
16821;BME280;8527;49.740;6.604;2022-08-24T13:40:08;99756.88;;;33.03;28.74
16821;BME280;8527;49.740;6.604;2022-08-24T13:45:24;99746.88;;;33.68;28.83
16821;BME280;8527;49.740;6.604;2022-08-24T13:50:30;99741.69;;;33.32;28.56
16821;BME280;8527;49.740;6.604;2022-08-24T13:55:39;99745.44;;;33.62;28.75
16821;BME280;8527;49.740;6.604;2022-08-24T14:00:45;99729.91;;;33.66;28.77
16821;BME280;8527;49.740;6.604;2022-08-24T14:05:48;99733.13;;;33.60;27.46
16821;BME280;8527;49.740;6.604;2022-08-24T14:10:58;99730.53;;;33.72;29.52
16821;BME280;8527;49.740;6.604;2022-08-24T14:16:05;99723.75;;;33.34;27.89
16821;BME280;8527;49.740;6.604;2022-08-24T14:21:23;99720.47;;;33.94;28.25
16821;BME280;8527;49.740;6.604;2022-08-24T14:27:04;99724.88;;;33.42;27.48
16821;BME280;8527;49.740;6.604;2022-08-24T14:32:30;99723.41;;;33.71;27.34
16821;BME280;8527;49.740;6.604;2022-08-24T14:37:39;99710.56;;;34.11;27.95
16821;BME280;8527;49.740;6.604;2022-08-24T14:42:55;99698.75;;;34.10;28.10
16821;BME280;8527;49.740;6.604;2022-08-24T14:48:01;99706.03;;;34.15;27.30
16821;BME280;8527;49.740;6.604;2022-08-24T14:53:32;99688.00;;;33.52;26.53
16821;BME280;8527;49.740;6.604;2022-08-24T14:58:46;99691.84;;;33.16;26.96
16821;BME280;8527;49.740;6.604;2022-08-24T15:09:35;99685.72;;;33.36;26.89
16821;BME280;8527;49.740;6.604;2022-08-24T15:14:40;99684.91;;;33.09;27.47
16821;BME280;8527;49.740;6.604;2022-08-24T15:19:48;99686.19;;;32.94;28.31
16821;BME280;8527;49.740;6.604;2022-08-24T15:24:52;99677.91;;;32.77;27.47
16821;BME280;8527;49.740;6.604;2022-08-24T15:30:01;99675.94;;;32.68;27.76
16821;BME280;8527;49.740;6.604;2022-08-24T15:34:59;99670.28;;;32.74;27.50
16821;BME280;8527;49.740;6.604;2022-08-24T15:40:04;99674.97;;;32.64;28.11
16821;BME280;8527;49.740;6.604;2022-08-24T15:45:06;99676.41;;;32.70;27.97
16821;BME280;8527;49.740;6.604;2022-08-24T15:50:19;99669.97;;;32.75;27.75
16821;BME280;8527;49.740;6.604;2022-08-24T15:55:34;99669.47;;;32.73;27.56
16821;BME280;8527;49.740;6.604;2022-08-24T16:00:38;99672.69;;;32.66;27.35
16821;BME280;8527;49.740;6.604;2022-08-24T16:05:54;99666.38;;;32.66;28.00
16821;BME280;8527;49.740;6.604;2022-08-24T16:10:55;99661.22;;;32.64;27.56
16821;BME280;8527;49.740;6.604;2022-08-24T16:16:03;99668.00;;;32.58;28.33
16821;BME280;8527;49.740;6.604;2022-08-24T16:21:12;99673.16;;;32.51;28.38
16821;BME280;8527;49.740;6.604;2022-08-24T16:26:21;99664.75;;;32.47;27.89
16821;BME280;8527;49.740;6.604;2022-08-24T16:31:48;99667.00;;;32.45;28.19
16821;BME280;8527;49.740;6.604;2022-08-24T16:36:47;99661.03;;;32.43;29.06
16821;BME280;8527;49.740;6.604;2022-08-24T16:41:49;99658.84;;;32.31;28.24
16821;BME280;8527;49.740;6.604;2022-08-24T16:46:51;99673.88;;;32.34;28.75
16821;BME280;8527;49.740;6.604;2022-08-24T16:51:50;99674.16;;;32.23;28.10
16821;BME280;8527;49.740;6.604;2022-08-24T16:56:49;99679.66;;;32.23;28.76
16821;BME280;8527;49.740;6.604;2022-08-24T17:01:50;99674.78;;;32.20;28.68
16821;BME280;8527;49.740;6.604;2022-08-24T17:06:49;99677.31;;;32.08;28.81
16821;BME280;8527;49.740;6.604;2022-08-24T17:11:47;99682.44;;;32.00;28.46
16821;BME280;8527;49.740;6.604;2022-08-24T17:16:52;99685.16;;;31.92;28.83
16821;BME280;8527;49.740;6.604;2022-08-24T17:21:54;99687.13;;;31.77;28.50
16821;BME280;8527;49.740;6.604;2022-08-24T17:27:00;99692.13;;;31.75;28.49
16821;BME280;8527;49.740;6.604;2022-08-24T17:32:05;99697.53;;;31.66;29.00
16821;BME280;8527;49.740;6.604;2022-08-24T17:37:05;99704.84;;;31.48;28.66
16821;BME280;8527;49.740;6.604;2022-08-24T17:42:12;99702.34;;;31.38;29.12
16821;BME280;8527;49.740;6.604;2022-08-24T17:47:13;99711.00;;;31.31;29.38
16821;BME280;8527;49.740;6.604;2022-08-24T17:52:12;99717.69;;;31.25;29.46
16821;BME280;8527;49.740;6.604;2022-08-24T17:57:12;99713.66;;;31.08;30.66
16821;BME280;8527;49.740;6.604;2022-08-24T18:02:14;99711.34;;;31.01;30.79
16821;BME280;8527;49.740;6.604;2022-08-24T18:07:16;99718.78;;;30.87;30.31
16821;BME280;8527;49.740;6.604;2022-08-24T18:12:17;99720.50;;;30.69;34.66
16821;BME280;8527;49.740;6.604;2022-08-24T18:17:25;99722.78;;;30.00;38.32
16821;BME280;8527;49.740;6.604;2022-08-24T18:22:26;99722.84;;;29.81;38.73
16821;BME280;8527;49.740;6.604;2022-08-24T18:27:28;99727.19;;;29.49;39.12
16821;BME280;8527;49.740;6.604;2022-08-24T18:32:29;99731.66;;;29.20;39.39
16821;BME280;8527;49.740;6.604;2022-08-24T18:37:28;99738.09;;;29.30;38.25
16821;BME280;8527;49.740;6.604;2022-08-24T18:42:26;99748.69;;;29.12;39.37
16821;BME280;8527;49.740;6.604;2022-08-24T18:47:29;99754.28;;;28.53;41.35
16821;BME280;8527;49.740;6.604;2022-08-24T18:52:27;99764.63;;;28.27;41.37
16821;BME280;8527;49.740;6.604;2022-08-24T18:57:26;99764.25;;;28.04;41.55
16821;BME280;8527;49.740;6.604;2022-08-24T19:02:34;99765.19;;;27.89;41.36
16821;BME280;8527;49.740;6.604;2022-08-24T19:07:37;99764.75;;;27.76;41.25
16821;BME280;8527;49.740;6.604;2022-08-24T19:12:38;99759.41;;;27.56;42.19
16821;BME280;8527;49.740;6.604;2022-08-24T19:17:40;99770.09;;;27.42;41.84
16821;BME280;8527;49.740;6.604;2022-08-24T19:22:44;99774.25;;;27.29;42.20
16821;BME280;8527;49.740;6.604;2022-08-24T19:27:43;99766.47;;;27.06;42.00
16821;BME280;8527;49.740;6.604;2022-08-24T19:32:44;99769.53;;;26.89;42.70
16821;BME280;8527;49.740;6.604;2022-08-24T19:37:43;99771.72;;;26.87;42.50
16821;BME280;8527;49.740;6.604;2022-08-24T19:42:43;99768.97;;;26.77;42.71
16821;BME280;8527;49.740;6.604;2022-08-24T19:47:47;99768.75;;;26.68;43.27
16821;BME280;8527;49.740;6.604;2022-08-24T19:52:46;99764.94;;;26.53;43.56
16821;BME280;8527;49.740;6.604;2022-08-24T19:57:48;99760.06;;;26.14;43.44
16821;BME280;8527;49.740;6.604;2022-08-24T20:02:55;99774.50;;;26.25;43.90
16821;BME280;8527;49.740;6.604;2022-08-24T20:07:57;99763.59;;;26.15;43.63
16821;BME280;8527;49.740;6.604;2022-08-24T20:12:58;99773.94;;;26.02;44.06
16821;BME280;8527;49.740;6.604;2022-08-24T20:17:59;99772.28;;;25.96;43.71
16821;BME280;8527;49.740;6.604;2022-08-24T20:22:58;99768.19;;;25.78;44.75
16821;BME280;8527;49.740;6.604;2022-08-24T20:28:02;99772.81;;;25.72;44.89
16821;BME280;8527;49.740;6.604;2022-08-24T20:33:05;99773.91;;;25.76;44.65
16821;BME280;8527;49.740;6.604;2022-08-24T20:38:11;99771.38;;;25.43;46.13
16821;BME280;8527;49.740;6.604;2022-08-24T20:43:14;99775.22;;;25.53;45.91
16821;BME280;8527;49.740;6.604;2022-08-24T20:48:15;99776.78;;;25.33;46.69
16821;BME280;8527;49.740;6.604;2022-08-24T20:53:15;99773.25;;;25.38;46.16
16821;BME280;8527;49.740;6.604;2022-08-24T20:58:16;99774.28;;;25.21;46.72
16821;BME280;8527;49.740;6.604;2022-08-24T21:03:19;99777.78;;;25.11;46.76
16821;BME280;8527;49.740;6.604;2022-08-24T21:08:18;99776.06;;;24.95;47.34
16821;BME280;8527;49.740;6.604;2022-08-24T21:13:17;99784.47;;;24.93;47.21
16821;BME280;8527;49.740;6.604;2022-08-24T21:18:16;99772.50;;;24.84;46.65
16821;BME280;8527;49.740;6.604;2022-08-24T21:23:19;99779.19;;;24.71;48.70
16821;BME280;8527;49.740;6.604;2022-08-24T21:28:19;99781.25;;;24.58;48.46
16821;BME280;8527;49.740;6.604;2022-08-24T21:33:20;99779.22;;;24.38;49.56
16821;BME280;8527;49.740;6.604;2022-08-24T21:38:34;99784.44;;;24.45;48.25
16821;BME280;8527;49.740;6.604;2022-08-24T21:43:35;99784.91;;;24.37;49.37
16821;BME280;8527;49.740;6.604;2022-08-24T21:48:38;99779.41;;;24.26;49.89
16821;BME280;8527;49.740;6.604;2022-08-24T21:53:40;99785.03;;;24.20;49.85
16821;BME280;8527;49.740;6.604;2022-08-24T21:58:47;99793.88;;;24.05;48.99
16821;BME280;8527;49.740;6.604;2022-08-24T22:03:49;99792.44;;;23.97;49.49
16821;BME280;8527;49.740;6.604;2022-08-24T22:08:53;99796.25;;;23.73;51.47
16821;BME280;8527;49.740;6.604;2022-08-24T22:13:53;99787.06;;;23.47;51.13
16821;BME280;8527;49.740;6.604;2022-08-24T22:18:52;99785.72;;;23.50;51.52
16821;BME280;8527;49.740;6.604;2022-08-24T22:24:05;99788.03;;;23.41;52.08
16821;BME280;8527;49.740;6.604;2022-08-24T22:29:06;99782.28;;;23.32;52.92
16821;BME280;8527;49.740;6.604;2022-08-24T22:34:07;99788.91;;;23.24;52.71
16821;BME280;8527;49.740;6.604;2022-08-24T22:39:12;99784.81;;;23.22;53.07
16821;BME280;8527;49.740;6.604;2022-08-24T22:44:13;99787.66;;;23.10;52.27
16821;BME280;8527;49.740;6.604;2022-08-24T22:49:22;99788.66;;;23.03;53.14
16821;BME280;8527;49.740;6.604;2022-08-24T22:54:26;99789.94;;;22.79;54.44
16821;BME280;8527;49.740;6.604;2022-08-24T22:59:28;99790.72;;;22.40;55.83
16821;BME280;8527;49.740;6.604;2022-08-24T23:04:33;99789.06;;;22.56;55.53
16821;BME280;8527;49.740;6.604;2022-08-24T23:09:35;99794.31;;;22.45;54.90
16821;BME280;8527;49.740;6.604;2022-08-24T23:14:34;99799.56;;;22.35;55.69
16821;BME280;8527;49.740;6.604;2022-08-24T23:19:33;99789.28;;;22.20;56.51
16821;BME280;8527;49.740;6.604;2022-08-24T23:24:47;99785.13;;;22.12;55.76
16821;BME280;8527;49.740;6.604;2022-08-24T23:29:46;99783.00;;;22.14;56.11
16821;BME280;8527;49.740;6.604;2022-08-24T23:34:46;99792.88;;;21.91;57.14
16821;BME280;8527;49.740;6.604;2022-08-24T23:39:49;99784.75;;;21.91;56.81
16821;BME280;8527;49.740;6.604;2022-08-24T23:44:48;99780.53;;;21.96;57.68
16821;BME280;8527;49.740;6.604;2022-08-24T23:49:47;99791.53;;;21.77;58.28
16821;BME280;8527;49.740;6.604;2022-08-24T23:54:48;99775.78;;;21.45;58.56
16821;BME280;8527;49.740;6.604;2022-08-24T23:59:47;99774.81;;;21.51;58.29
